Portada
METAR-TAF:

METAR-TAF

Aeroports :

Arkhànguelsk, Rússia

latitud: 64-30N, longitud: 040-44E, altitud: 13 m

Observació

L'informe es va fer fa 47 minuts, a les 11:30 UTC
Vent 12 kt del Nord-Oest, variant entre Oest i Nord
Temperatura 14°C
Humitat 55%
Pressió 1024 hPa
Visibilitat 10 km o més
Núvols disperses a una alçada de 3000 ft, Cumulonimbus.

METAR: ULAA 301130Z 32006MPS 270V360 9999 SCT030CB 14/05 Q1024 R26/CLRD68 NOSIG RMK QFE766/1022

Hora: 15:17 (12:17 UTC)

Pronòstic

L'informe es va fer fa 1 hora i 17 minuts, a les 11:00 UTC
Pronòstic vàlid del 30 a les 12 UTC al 31 a les 12 UTC
Vent 8 kt del Nord
Visibilitat 10 km o més
Cel ennuvolat a una alçada de 2000 ft
Temporalment
l' 30 a les 12 UTC al 31 a les 12 UTC
Vent 8 kt del Nord-Oest amb ràfegues de 23 kt
Visibilitat: 6000 m
Cel ennuvolat a una alçada de 1600 ft, Cumulonimbus.
xàfecs de pluja

TAF: ULAA 301100Z 3012/3112 36004MPS 9999 BKN020 TEMPO 3012/3112 32004G12MPS 6000 -SHRA BKN016CB

Observacions i pronòstics meteorològics de més de 4000 aeroports (METAR i TAF).

Les estacions disponibles són els punts grocs i vermells al mapa.

Posi el ratolí al punt desitjat per veure el nom de l'estació.

Feu clic per veure les observacions i els pronòstics meteorològics.

Per canviar el mapa: feu clic els botons verds amb una creu de color negre per apropar; al botó verd amb un guió per allunyar la imatge; o en les fletxes verdes per a mapes adjacents.


METAR-TAF: